createdAt,value
2018-05-21T00:01:45.602Z,2.97
2018-05-21T00:04:48.684Z,3.13
2018-05-21T00:07:51.775Z,3.20
2018-05-21T00:10:54.853Z,3.13
2018-05-21T00:13:57.932Z,3.13
2018-05-21T00:17:00.985Z,3.40
2018-05-21T00:20:04.083Z,3.23
2018-05-21T00:23:07.145Z,3.53
2018-05-21T00:26:10.311Z,3.37
2018-05-21T00:29:13.371Z,2.83
2018-05-21T00:32:17.227Z,3.30
2018-05-21T00:35:21.058Z,3.23
2018-05-21T00:38:24.152Z,3.20
2018-05-21T00:41:27.214Z,3.17
2018-05-21T00:44:30.307Z,3.20
2018-05-21T00:47:33.373Z,3.23
2018-05-21T00:50:36.466Z,2.53
2018-05-21T00:53:39.519Z,3.07
2018-05-21T00:56:43.385Z,3.30
2018-05-21T00:59:47.238Z,3.20
2018-05-21T01:02:51.091Z,2.97
2018-05-21T01:05:54.153Z,2.97
2018-05-21T01:08:57.262Z,3.60
2018-05-21T01:12:00.351Z,3.40
2018-05-21T01:15:03.428Z,3.23
2018-05-21T01:18:06.486Z,3.00
2018-05-21T01:21:10.330Z,3.50
2018-05-21T01:24:13.398Z,3.23
2018-05-21T01:27:17.253Z,2.70
2018-05-21T01:30:20.314Z,3.20
2018-05-21T01:33:23.390Z,3.43
2018-05-21T01:36:26.460Z,3.20
2018-05-21T01:39:30.302Z,3.17
2018-05-21T01:42:33.371Z,2.90
2018-05-21T01:45:36.454Z,3.10
2018-05-21T01:48:40.289Z,3.00
2018-05-21T01:51:43.371Z,2.83
2018-05-21T01:54:46.691Z,3.17
2018-05-21T01:57:49.873Z,3.03
2018-05-21T02:00:52.939Z,2.83
2018-05-21T02:03:56.029Z,2.67
2018-05-21T02:06:59.085Z,2.80
2018-05-21T02:10:02.162Z,2.80
2018-05-21T02:13:05.225Z,2.70
2018-05-21T02:16:08.319Z,2.80
2018-05-21T02:19:11.382Z,2.60
2018-05-21T02:22:14.467Z,2.60
2018-05-21T02:25:18.289Z,2.87
2018-05-21T02:28:21.370Z,2.60
2018-05-21T02:31:24.431Z,3.00
2018-05-21T02:34:28.275Z,2.63
2018-05-21T02:37:31.338Z,2.60
2018-05-21T02:40:35.193Z,2.60
2018-05-21T02:43:38.251Z,2.97
2018-05-21T02:46:41.326Z,3.10
2018-05-21T02:49:45.226Z,3.07
2018-05-21T02:52:48.229Z,2.47
2018-05-21T02:55:51.294Z,2.53
2018-05-21T02:58:54.383Z,3.00
2018-05-21T03:01:57.442Z,2.80
2018-05-21T03:05:00.517Z,2.30
2018-05-21T03:08:03.606Z,3.03
2018-05-21T03:11:06.702Z,2.97
2018-05-21T03:14:09.758Z,3.20
2018-05-21T03:17:12.843Z,2.73
2018-05-21T03:20:15.914Z,2.90
2018-05-21T03:23:18.995Z,2.63
2018-05-21T03:26:22.062Z,2.90
2018-05-21T03:29:25.150Z,3.10
2018-05-21T03:32:28.210Z,2.97
2018-05-21T03:35:31.302Z,3.00
2018-05-21T03:38:34.378Z,2.63
2018-05-21T03:41:37.468Z,3.23
2018-05-21T03:44:40.534Z,2.60
2018-05-21T03:47:44.384Z,3.20
2018-05-21T03:50:47.461Z,2.97
2018-05-21T03:53:50.547Z,3.20
2018-05-21T03:56:53.691Z,2.87
2018-05-21T04:00:09.660Z,3.13
2018-05-21T04:03:30.345Z,2.93
2018-05-21T04:06:33.425Z,2.90
2018-05-21T04:09:36.499Z,2.83
2018-05-21T04:12:40.356Z,3.00
2018-05-21T04:15:44.178Z,3.20
2018-05-21T04:18:47.273Z,3.60
2018-05-21T04:21:50.326Z,3.10
2018-05-21T04:24:53.415Z,3.13
2018-05-21T04:27:56.480Z,3.27
2018-05-21T04:30:59.561Z,2.90
2018-05-21T04:34:02.631Z,3.33
2018-05-21T04:37:06.708Z,3.37
2018-05-21T04:40:09.968Z,3.53
2018-05-21T04:43:13.096Z,2.90
2018-05-21T04:46:16.158Z,3.27
2018-05-21T04:49:19.272Z,3.10
2018-05-21T04:52:22.338Z,3.33
2018-05-21T04:55:25.441Z,3.47
2018-05-21T04:58:28.506Z,3.17
2018-05-21T05:01:31.591Z,4.00
2018-05-21T05:04:34.686Z,3.30
2018-05-21T05:07:37.774Z,3.43
2018-05-21T05:10:40.830Z,3.23
2018-05-21T05:13:43.920Z,3.40
2018-05-21T05:16:46.974Z,3.27
2018-05-21T05:19:50.058Z,3.43
2018-05-21T05:22:53.124Z,3.23
2018-05-21T05:25:56.296Z,3.27
2018-05-21T05:29:00.098Z,3.63
2018-05-21T05:32:04.073Z,3.28
2018-05-21T05:35:07.156Z,3.37
2018-05-21T05:38:10.235Z,3.17
2018-05-21T05:41:13.301Z,3.10
2018-05-21T05:44:16.396Z,3.37
2018-05-21T05:47:19.452Z,3.17
2018-05-21T05:50:23.298Z,3.22
2018-05-21T05:53:26.371Z,3.80
2018-05-21T05:56:29.450Z,3.60
2018-05-21T05:59:33.298Z,3.10
2018-05-21T06:02:36.386Z,3.37
2018-05-21T06:05:39.446Z,3.58
2018-05-21T06:08:42.559Z,3.33
2018-05-21T06:11:45.605Z,3.50
2018-05-21T06:14:49.458Z,3.05
2018-05-21T06:17:52.518Z,3.20
2018-05-21T06:20:55.608Z,3.12
2018-05-21T06:23:58.670Z,3.33
2018-05-21T06:27:01.761Z,3.17
2018-05-21T06:30:04.831Z,3.17
2018-05-21T06:33:07.923Z,3.00
2018-05-21T06:36:10.999Z,3.12
2018-05-21T06:39:14.082Z,2.90
2018-05-21T06:42:17.147Z,2.97
2018-05-21T06:45:20.238Z,2.87
2018-05-21T06:48:23.298Z,2.80
2018-05-21T06:51:27.146Z,3.35
2018-05-21T06:54:30.227Z,2.85
2018-05-21T06:57:33.324Z,3.20
2018-05-21T07:00:36.397Z,2.60
2018-05-21T07:03:40.244Z,3.10
2018-05-21T07:06:43.311Z,2.97
2018-05-21T07:09:46.412Z,2.58
2018-05-21T07:12:49.562Z,2.55
2018-05-21T07:15:52.617Z,3.00
2018-05-21T07:18:55.681Z,2.62
2018-05-21T07:21:58.775Z,2.87
2018-05-21T07:25:01.838Z,2.55
2018-05-21T07:28:04.933Z,2.60
2018-05-21T07:31:08.009Z,2.65
2018-05-21T07:34:11.090Z,2.35
2018-05-21T07:37:14.159Z,2.42
2018-05-21T07:40:17.241Z,2.40
2018-05-21T07:43:20.306Z,2.47
2018-05-21T07:46:23.385Z,2.50
2018-05-21T07:49:26.459Z,2.58
2018-05-21T07:52:29.549Z,2.33
2018-05-21T07:55:32.617Z,2.17
2018-05-21T07:58:36.466Z,2.30
2018-05-21T08:01:39.645Z,2.25
2018-05-21T08:04:42.761Z,2.25
2018-05-21T08:07:45.826Z,2.40
2018-05-21T08:10:48.922Z,2.25
2018-05-21T08:13:51.987Z,2.17
2018-05-21T08:16:55.285Z,2.00
2018-05-21T08:19:58.347Z,2.15
2018-05-21T08:23:02.191Z,2.20
2018-05-21T08:26:05.325Z,2.40
2018-05-21T08:29:08.543Z,2.42
2018-05-21T08:32:11.584Z,2.42
2018-05-21T08:35:14.675Z,2.40
2018-05-21T08:38:17.748Z,2.15
2018-05-21T08:41:20.834Z,2.22
2018-05-21T08:44:23.902Z,2.10
2018-05-21T08:47:26.999Z,2.22
2018-05-21T08:50:30.070Z,2.35
2018-05-21T08:53:33.919Z,1.98
2018-05-21T08:56:37.074Z,2.75
2018-05-21T08:59:40.071Z,2.53
2018-05-21T09:02:43.134Z,2.60
2018-05-21T09:05:47.054Z,2.22
2018-05-21T09:08:50.191Z,2.60
2018-05-21T09:11:54.042Z,2.53
2018-05-21T09:14:57.923Z,2.37
2018-05-21T09:18:01.019Z,2.78
2018-05-21T09:21:04.086Z,2.55
2018-05-21T09:24:07.487Z,2.62
2018-05-21T09:27:10.556Z,2.62
2018-05-21T09:30:13.643Z,2.58
2018-05-21T09:33:16.807Z,2.60
2018-05-21T09:36:19.938Z,3.12
2018-05-21T09:39:22.946Z,2.83
2018-05-21T09:42:26.035Z,2.65
2018-05-21T09:45:29.874Z,2.50
2018-05-21T09:48:33.766Z,3.08
2018-05-21T09:51:36.854Z,2.62
2018-05-21T09:54:39.974Z,2.92
2018-05-21T09:57:43.801Z,2.85
2018-05-21T10:00:46.892Z,2.83
2018-05-21T10:03:49.958Z,2.72
2018-05-21T10:06:53.859Z,2.87
2018-05-21T10:09:57.694Z,3.00
2018-05-21T10:13:00.783Z,2.62
2018-05-21T10:16:03.844Z,2.72
2018-05-21T10:19:07.706Z,2.95
2018-05-21T10:22:10.955Z,2.67
2018-05-21T10:25:14.024Z,3.10
2018-05-21T10:28:17.106Z,3.03
2018-05-21T10:31:20.191Z,3.00
2018-05-21T10:34:23.245Z,2.80
2018-05-21T10:37:26.438Z,2.83
2018-05-21T10:40:29.494Z,3.00
2018-05-21T10:43:32.551Z,2.87
2018-05-21T10:46:35.614Z,2.65
2018-05-21T10:49:38.728Z,3.00
2018-05-21T10:52:41.784Z,3.00
2018-05-21T10:55:44.875Z,3.03
2018-05-21T10:58:47.945Z,3.10
2018-05-21T11:01:51.033Z,2.80
2018-05-21T11:04:54.096Z,2.80
2018-05-21T11:07:57.176Z,2.85
2018-05-21T11:11:00.234Z,2.62
2018-05-21T11:14:03.323Z,2.85
2018-05-21T11:17:06.383Z,2.60
2018-05-21T11:20:09.508Z,2.90
2018-05-21T11:23:12.577Z,3.10
2018-05-21T11:26:15.673Z,2.40
2018-05-21T11:29:18.744Z,2.35
2018-05-21T11:32:21.827Z,2.30
2018-05-21T11:35:24.901Z,2.12
2018-05-21T11:38:28.753Z,2.25
2018-05-21T11:41:32.647Z,2.40
2018-05-21T11:44:35.730Z,2.00
2018-05-21T11:47:38.806Z,2.15
2018-05-21T11:50:42.702Z,2.10
2018-05-21T11:53:46.491Z,2.60
2018-05-21T11:56:49.578Z,1.90
2018-05-21T11:59:52.638Z,1.90
2018-05-21T12:02:55.729Z,2.12
2018-05-21T12:05:58.785Z,2.25
2018-05-21T12:09:01.907Z,2.37
2018-05-21T12:12:04.965Z,2.50
2018-05-21T12:15:08.054Z,2.20
2018-05-21T12:18:11.119Z,2.20
2018-05-21T12:21:14.209Z,2.08
2018-05-21T12:24:18.069Z,3.12
2018-05-21T12:27:21.229Z,2.22
2018-05-21T12:30:24.299Z,2.30
2018-05-21T12:33:28.157Z,2.17
2018-05-21T12:36:31.223Z,2.30
2018-05-21T12:39:34.342Z,1.90
2018-05-21T12:42:37.410Z,2.28
2018-05-21T12:45:40.502Z,2.20
2018-05-21T12:48:43.571Z,2.00
2018-05-21T12:51:46.706Z,2.12
2018-05-21T12:54:49.775Z,2.25
2018-05-21T12:57:52.867Z,2.20
2018-05-21T13:00:55.936Z,2.30
2018-05-21T13:03:59.030Z,2.20
2018-05-21T13:07:02.097Z,2.05
2018-05-21T13:10:05.951Z,2.03
2018-05-21T13:13:09.075Z,1.80
2018-05-21T13:16:12.170Z,2.00
2018-05-21T13:19:15.246Z,2.08
2018-05-21T13:22:18.341Z,2.47
2018-05-21T13:25:21.615Z,2.00
2018-05-21T13:28:24.811Z,2.10
2018-05-21T13:31:27.874Z,1.95
2018-05-21T13:34:30.958Z,1.98
2018-05-21T13:37:34.026Z,1.95
2018-05-21T13:40:38.823Z,1.90
2018-05-21T13:43:41.893Z,2.00
2018-05-21T13:46:44.983Z,2.03
2018-05-21T13:49:48.086Z,2.00
2018-05-21T13:52:51.183Z,2.20
2018-05-21T13:55:54.266Z,2.17
2018-05-21T13:58:57.358Z,2.30
2018-05-21T14:02:00.543Z,2.22
2018-05-21T14:05:03.623Z,2.45
2018-05-21T14:08:06.682Z,1.90
2018-05-21T14:11:09.795Z,2.40
2018-05-21T14:14:12.868Z,2.22
2018-05-21T14:17:15.969Z,2.28
2018-05-21T14:20:19.120Z,2.10
2018-05-21T14:23:22.211Z,2.05
2018-05-21T14:26:26.037Z,2.17
2018-05-21T14:29:29.144Z,2.20
2018-05-21T14:32:32.197Z,2.37
2018-05-21T14:35:36.049Z,2.40
2018-05-21T14:38:39.166Z,2.30
2018-05-21T14:41:42.268Z,2.53
2018-05-21T14:44:45.339Z,2.40
2018-05-21T14:47:48.428Z,2.42
2018-05-21T14:50:51.495Z,2.60
2018-05-21T14:53:54.609Z,2.55
2018-05-21T14:56:57.678Z,2.37
2018-05-21T15:00:00.825Z,2.03
2018-05-21T15:03:03.860Z,1.80
2018-05-21T15:06:06.950Z,2.20
2018-05-21T15:09:10.068Z,2.10
2018-05-21T15:12:13.159Z,2.20
2018-05-21T15:15:16.230Z,2.45
2018-05-21T15:18:19.350Z,2.30
2018-05-21T15:21:23.186Z,2.50
2018-05-21T15:24:26.395Z,2.40
2018-05-21T15:27:29.492Z,2.55
2018-05-21T15:30:32.582Z,2.30
2018-05-21T15:33:35.654Z,2.28
2018-05-21T15:36:38.746Z,2.10
2018-05-21T15:39:41.913Z,1.95
2018-05-21T15:42:44.972Z,2.42
2018-05-21T15:45:48.036Z,2.40
2018-05-21T15:48:51.131Z,2.10
2018-05-21T15:51:54.205Z,2.15
2018-05-21T15:54:57.314Z,2.20
2018-05-21T15:58:00.384Z,2.80
2018-05-21T16:01:03.539Z,2.47
2018-05-21T16:04:06.628Z,2.60
2018-05-21T16:07:10.469Z,2.35
2018-05-21T16:10:13.559Z,2.55
2018-05-21T16:13:16.666Z,2.25
2018-05-21T16:16:19.735Z,2.30
2018-05-21T16:19:22.896Z,2.60
2018-05-21T16:22:25.941Z,2.53
2018-05-21T16:25:29.031Z,2.20
2018-05-21T16:28:32.103Z,2.10
2018-05-21T16:31:35.209Z,2.15
2018-05-21T16:34:38.258Z,2.35
2018-05-21T16:37:41.358Z,2.20
2018-05-21T16:40:44.420Z,2.20
2018-05-21T16:43:48.290Z,2.30
2018-05-21T16:46:51.359Z,2.72
2018-05-21T16:49:54.450Z,2.40
2018-05-21T16:52:57.531Z,2.33
2018-05-21T16:56:00.690Z,2.40
2018-05-21T16:59:03.730Z,2.33
2018-05-21T17:02:06.867Z,2.33
2018-05-21T17:05:09.908Z,2.67
2018-05-21T17:08:13.007Z,2.50
2018-05-21T17:11:16.841Z,2.33
2018-05-21T17:14:20.695Z,1.90
2018-05-21T17:17:23.770Z,2.45
2018-05-21T17:20:26.914Z,2.35
2018-05-21T17:23:29.999Z,2.70
2018-05-21T17:26:34.060Z,2.50
2018-05-21T17:29:37.398Z,2.30
2018-05-21T17:32:40.484Z,2.20
2018-05-21T17:35:43.938Z,2.60
2018-05-21T17:38:46.977Z,2.10
2018-05-21T17:41:50.032Z,2.67
2018-05-21T17:44:53.142Z,1.93
2018-05-21T17:47:56.286Z,2.07
2018-05-21T17:51:00.605Z,2.17
2018-05-21T17:54:03.697Z,2.17
2018-05-21T17:57:06.777Z,2.30
2018-05-21T18:00:10.608Z,2.40
2018-05-21T18:03:13.752Z,2.10
2018-05-21T18:06:17.525Z,2.50
2018-05-21T18:09:20.780Z,2.20
2018-05-21T18:12:23.825Z,2.50
2018-05-21T18:15:26.907Z,2.23
2018-05-21T18:18:30.010Z,2.30
2018-05-21T18:21:33.102Z,2.57
2018-05-21T18:24:36.170Z,2.10
2018-05-21T18:27:39.255Z,2.70
2018-05-21T18:30:42.319Z,2.23
2018-05-21T18:33:45.576Z,2.30
2018-05-21T18:36:48.644Z,2.43
2018-05-21T18:39:51.733Z,2.27
2018-05-21T18:42:54.911Z,2.60
2018-05-21T18:45:57.998Z,2.40
2018-05-21T18:49:01.070Z,2.40
2018-05-21T18:52:04.155Z,2.80
2018-05-21T18:55:07.230Z,2.60
2018-05-21T18:58:11.150Z,2.60
2018-05-21T19:01:14.191Z,2.80
2018-05-21T19:04:17.279Z,2.47
2018-05-21T19:07:20.335Z,2.50
2018-05-21T19:10:23.460Z,2.70
2018-05-21T19:13:26.521Z,2.43
2018-05-21T19:16:29.616Z,2.50
2018-05-21T19:19:32.679Z,2.53
2018-05-21T19:22:35.765Z,3.17
2018-05-21T19:25:38.840Z,2.50
2018-05-21T19:28:42.756Z,2.97
2018-05-21T19:31:45.790Z,2.73
2018-05-21T19:34:48.891Z,2.90
2018-05-21T19:37:51.943Z,3.10
2018-05-21T19:40:55.113Z,3.00
2018-05-21T19:43:58.236Z,2.67
2018-05-21T19:47:01.466Z,2.40
2018-05-21T19:50:04.534Z,2.83
2018-05-21T19:53:07.622Z,2.77
2018-05-21T19:56:10.698Z,3.27
2018-05-21T19:59:13.781Z,2.60
2018-05-21T20:02:16.846Z,2.60
2018-05-21T20:05:20.731Z,3.00
2018-05-21T20:08:23.916Z,2.57
2018-05-21T20:11:27.000Z,3.00
2018-05-21T20:14:30.101Z,3.00
2018-05-21T20:17:33.210Z,2.97
2018-05-21T20:20:42.786Z,3.10
2018-05-21T20:23:45.889Z,2.93
2018-05-21T20:26:49.036Z,2.70
2018-05-21T20:29:52.091Z,2.90
2018-05-21T20:32:55.202Z,2.97
2018-05-21T20:35:59.045Z,2.73
2018-05-21T20:39:02.126Z,3.07
2018-05-21T20:42:05.374Z,3.07
2018-05-21T20:45:08.447Z,2.70
2018-05-21T20:48:11.545Z,2.97
2018-05-21T20:51:14.609Z,2.90
2018-05-21T20:54:17.696Z,2.90
2018-05-21T20:57:20.758Z,2.80
2018-05-21T21:00:23.860Z,3.10
2018-05-21T21:03:26.948Z,3.03
2018-05-21T21:06:30.031Z,2.77
2018-05-21T21:09:33.094Z,3.10
2018-05-21T21:12:36.188Z,2.93
2018-05-21T21:15:39.260Z,2.50
2018-05-21T21:18:42.342Z,2.97
2018-05-21T21:21:45.418Z,3.10
2018-05-21T21:24:48.498Z,3.10
2018-05-21T21:27:51.563Z,3.07
2018-05-21T21:30:54.727Z,2.90
2018-05-21T21:33:57.856Z,3.00
2018-05-21T21:37:00.944Z,3.03
2018-05-21T21:40:04.035Z,2.90
2018-05-21T21:43:07.851Z,2.87
2018-05-21T21:46:10.914Z,3.00
2018-05-21T21:49:14.006Z,3.10
2018-05-21T21:52:17.078Z,3.30
2018-05-21T21:55:20.947Z,3.40
2018-05-21T21:58:24.048Z,3.30
2018-05-21T22:01:27.171Z,3.30
2018-05-21T22:04:30.202Z,3.30
2018-05-21T22:07:33.474Z,3.00
2018-05-21T22:10:36.539Z,3.33
2018-05-21T22:13:40.387Z,3.40
2018-05-21T22:16:43.446Z,3.50
2018-05-21T22:19:47.301Z,3.57
2018-05-21T22:22:50.362Z,3.77
2018-05-21T22:25:53.647Z,3.50
2018-05-21T22:28:56.735Z,3.47
2018-05-21T22:31:59.835Z,3.40
2018-05-21T22:35:02.900Z,3.97
2018-05-21T22:38:06.810Z,3.83
2018-05-21T22:41:09.837Z,3.40
2018-05-21T22:44:12.920Z,3.10
2018-05-21T22:47:15.997Z,3.90
2018-05-21T22:50:19.870Z,3.23
2018-05-21T22:53:22.901Z,3.60
2018-05-21T22:56:25.994Z,3.70
2018-05-21T22:59:29.050Z,3.67
2018-05-21T23:02:32.910Z,3.40
2018-05-21T23:05:35.975Z,3.40
2018-05-21T23:08:39.075Z,3.03
2018-05-21T23:11:42.129Z,3.47
2018-05-21T23:14:45.983Z,3.17
2018-05-21T23:17:49.055Z,3.37
2018-05-21T23:20:52.217Z,3.37
2018-05-21T23:23:55.305Z,3.60
2018-05-21T23:26:58.371Z,3.60
2018-05-21T23:30:01.485Z,3.60
2018-05-21T23:33:04.544Z,3.50
2018-05-21T23:36:07.604Z,3.70
2018-05-21T23:39:10.696Z,3.43
2018-05-21T23:42:13.775Z,3.60
2018-05-21T23:45:16.870Z,3.60
2018-05-21T23:48:19.938Z,3.40
2018-05-21T23:51:23.030Z,3.50
2018-05-21T23:54:26.085Z,3.40
2018-05-21T23:57:29.186Z,3.60
